CheckWX is a tool to help pilots better visualize weather data.  It is not intended as a substitute for an official pre-flight weather briefing.

01:45:10 UTC

KRWF TAF
Redwood Falls Municipal Airport
Redwood Falls, Minnesota, USA
KRWF 202322Z 2100/2124 30013G19KT P6SM SKC FM210200 31011KT P6SM SCT030 FM211200 28008KT P6SM SKC FM211700 30011G17KT P6SM SKC

Mar-21@
00:00 UTC

Mar-21 @ 00:00 UTC

Mar-21@
02:00 UTC

Mar-21 @ 02:00 UTC

KRWF 202322Z 2100/2124 30013G19KT P6SM SKC
Wind
  • 300° at 13 KTS
  • {Gusting to 19 KTS
Cloud Levels
  • Clear skies

Mar-21@
02:00 UTC

Mar-21 @ 02:00 UTC

Mar-21@
12:00 UTC

Mar-21 @ 12:00 UTC

FM210200 31011KT P6SM SCT030

From

From Standard forecast or significant change

Wind
  • 310° at 11 KTS
Cloud Levels
  • Scattered at 3,000' AGL

Mar-21@
12:00 UTC

Mar-21 @ 12:00 UTC

Mar-21@
17:00 UTC

Mar-21 @ 17:00 UTC

FM211200 28008KT P6SM SKC

From

From Standard forecast or significant change

Wind
  • 280° at 8 KTS
Cloud Levels
  • Clear skies

Mar-21@
17:00 UTC

Mar-21 @ 17:00 UTC

Mar-22@
00:00 UTC

Mar-22 @ 00:00 UTC

FM211700 30011G17KT P6SM SKC

From

From Standard forecast or significant change

Wind
  • 300° at 11 KTS
  • {Gusting to 17 KTS
Cloud Levels
  • Clear skies